sensor_id;sensor_type;location;lat;lon;timestamp;pressure;altitude;pressure_sealevel;temperature;humidity
73936;BME280;62287;50.858;0.252;2023-06-14T00:00:21;101294.93;;;21.98;30.57
73936;BME280;62287;50.858;0.252;2023-06-14T00:00:52;101289.99;;;21.96;30.05
73936;BME280;62287;50.858;0.252;2023-06-14T00:01:24;101295.43;;;22.23;29.95
73936;BME280;62287;50.858;0.252;2023-06-14T00:01:56;101295.92;;;22.06;30.63
73936;BME280;62287;50.858;0.252;2023-06-14T00:02:27;101295.39;;;22.61;30.81
73936;BME280;62287;50.858;0.252;2023-06-14T00:02:58;101297.53;;;22.68;30.81
73936;BME280;62287;50.858;0.252;2023-06-14T00:03:30;101296.66;;;22.06;30.14
73936;BME280;62287;50.858;0.252;2023-06-14T00:04:00;101298.62;;;22.98;30.12
73936;BME280;62287;50.858;0.252;2023-06-14T00:04:31;101293.94;;;22.26;30.12
73936;BME280;62287;50.858;0.252;2023-06-14T00:05:03;101297.07;;;21.75;30.47
73936;BME280;62287;50.858;0.252;2023-06-14T00:05:34;101296.01;;;22.41;30.41
73936;BME280;62287;50.858;0.252;2023-06-14T00:06:05;101297.21;;;22.16;30.68
73936;BME280;62287;50.858;0.252;2023-06-14T00:06:36;101296.07;;;22.40;30.48
73936;BME280;62287;50.858;0.252;2023-06-14T00:07:07;101296.43;;;22.39;30.59
73936;BME280;62287;50.858;0.252;2023-06-14T00:07:40;101298.49;;;22.44;30.52
73936;BME280;62287;50.858;0.252;2023-06-14T00:08:11;101300.67;;;22.90;30.20
73936;BME280;62287;50.858;0.252;2023-06-14T00:08:42;101301.15;;;22.49;30.55
73936;BME280;62287;50.858;0.252;2023-06-14T00:09:13;101298.33;;;22.77;30.46
73936;BME280;62287;50.858;0.252;2023-06-14T00:09:44;101295.24;;;22.71;30.65
73936;BME280;62287;50.858;0.252;2023-06-14T00:10:15;101296.85;;;22.48;30.76
73936;BME280;62287;50.858;0.252;2023-06-14T00:10:51;101298.55;;;22.54;30.08
73936;BME280;62287;50.858;0.252;2023-06-14T00:11:22;101300.51;;;21.94;30.67
73936;BME280;62287;50.858;0.252;2023-06-14T00:11:54;101297.72;;;22.75;30.34
73936;BME280;62287;50.858;0.252;2023-06-14T00:12:24;101300.62;;;22.70;30.67
73936;BME280;62287;50.858;0.252;2023-06-14T00:12:55;101300.45;;;22.48;30.58
73936;BME280;62287;50.858;0.252;2023-06-14T00:13:26;101300.76;;;22.60;30.66
73936;BME280;62287;50.858;0.252;2023-06-14T00:13:57;101300.42;;;22.14;30.56
73936;BME280;62287;50.858;0.252;2023-06-14T00:14:28;101303.55;;;22.37;30.50
73936;BME280;62287;50.858;0.252;2023-06-14T00:14:59;101303.41;;;22.61;30.51
73936;BME280;62287;50.858;0.252;2023-06-14T00:15:31;101302.88;;;22.33;30.09
73936;BME280;62287;50.858;0.252;2023-06-14T00:16:02;101302.31;;;22.60;30.29
73936;BME280;62287;50.858;0.252;2023-06-14T00:16:33;101299.64;;;22.55;30.71
73936;BME280;62287;50.858;0.252;2023-06-14T00:17:04;101298.58;;;22.93;30.82
73936;BME280;62287;50.858;0.252;2023-06-14T00:17:35;101299.45;;;21.97;30.34
73936;BME280;62287;50.858;0.252;2023-06-14T00:18:06;101298.93;;;22.38;30.81
73936;BME280;62287;50.858;0.252;2023-06-14T00:18:37;101298.27;;;21.93;30.36
73936;BME280;62287;50.858;0.252;2023-06-14T00:19:09;101300.94;;;21.76;30.54
73936;BME280;62287;50.858;0.252;2023-06-14T00:19:40;101300.67;;;22.26;30.19
73936;BME280;62287;50.858;0.252;2023-06-14T00:20:11;101299.44;;;22.59;30.73
73936;BME280;62287;50.858;0.252;2023-06-14T00:20:42;101297.51;;;22.42;30.66
73936;BME280;62287;50.858;0.252;2023-06-14T00:21:23;101299.69;;;22.24;30.80
73936;BME280;62287;50.858;0.252;2023-06-14T00:21:55;101301.40;;;22.55;30.69
73936;BME280;62287;50.858;0.252;2023-06-14T00:22:26;101306.31;;;22.22;30.66
73936;BME280;62287;50.858;0.252;2023-06-14T00:22:57;101304.09;;;22.32;30.21
73936;BME280;62287;50.858;0.252;2023-06-14T00:23:28;101305.72;;;22.70;30.67
73936;BME280;62287;50.858;0.252;2023-06-14T00:24:00;101302.45;;;22.40;30.92
73936;BME280;62287;50.858;0.252;2023-06-14T00:24:31;101302.94;;;22.28;31.02
73936;BME280;62287;50.858;0.252;2023-06-14T00:25:02;101300.51;;;22.59;31.11
73936;BME280;62287;50.858;0.252;2023-06-14T00:25:33;101303.40;;;21.93;30.81
73936;BME280;62287;50.858;0.252;2023-06-14T00:26:04;101299.49;;;22.51;30.41
73936;BME280;62287;50.858;0.252;2023-06-14T00:26:35;101301.66;;;22.16;30.97
73936;BME280;62287;50.858;0.252;2023-06-14T00:27:06;101303.79;;;22.16;30.31
73936;BME280;62287;50.858;0.252;2023-06-14T00:27:38;101303.93;;;22.05;31.18
73936;BME280;62287;50.858;0.252;2023-06-14T00:28:09;101303.26;;;22.00;31.24
73936;BME280;62287;50.858;0.252;2023-06-14T00:28:40;101299.84;;;21.91;30.89
73936;BME280;62287;50.858;0.252;2023-06-14T00:29:11;101297.67;;;22.24;30.92
73936;BME280;62287;50.858;0.252;2023-06-14T00:29:42;101291.24;;;22.20;30.97
73936;BME280;62287;50.858;0.252;2023-06-14T00:30:13;101294.28;;;22.21;29.98
73936;BME280;62287;50.858;0.252;2023-06-14T00:30:44;101292.16;;;22.18;30.92
73936;BME280;62287;50.858;0.252;2023-06-14T00:31:15;101294.60;;;22.32;30.85
73936;BME280;62287;50.858;0.252;2023-06-14T00:31:46;101294.77;;;22.21;30.04
73936;BME280;62287;50.858;0.252;2023-06-14T00:32:18;101293.91;;;22.20;30.95
73936;BME280;62287;50.858;0.252;2023-06-14T00:32:49;101295.79;;;22.19;31.16
73936;BME280;62287;50.858;0.252;2023-06-14T00:33:20;101300.53;;;21.78;31.39
73936;BME280;62287;50.858;0.252;2023-06-14T00:33:51;101296.16;;;22.23;30.79
73936;BME280;62287;50.858;0.252;2023-06-14T00:34:22;101294.21;;;21.93;30.96
73936;BME280;62287;50.858;0.252;2023-06-14T00:34:53;101291.04;;;21.60;30.53
73936;BME280;62287;50.858;0.252;2023-06-14T00:35:24;101293.37;;;21.14;30.58
73936;BME280;62287;50.858;0.252;2023-06-14T00:35:55;101292.54;;;21.57;30.82
73936;BME280;62287;50.858;0.252;2023-06-14T00:36:26;101291.49;;;21.66;30.27
73936;BME280;62287;50.858;0.252;2023-06-14T00:36:56;101289.81;;;21.54;30.05
73936;BME280;62287;50.858;0.252;2023-06-14T00:37:27;101290.55;;;22.02;30.90
73936;BME280;62287;50.858;0.252;2023-06-14T00:37:58;101291.08;;;22.02;30.96
73936;BME280;62287;50.858;0.252;2023-06-14T00:38:29;101293.96;;;21.83;30.11
73936;BME280;62287;50.858;0.252;2023-06-14T00:39:00;101290.90;;;21.88;30.85
73936;BME280;62287;50.858;0.252;2023-06-14T00:39:31;101291.73;;;22.00;31.13
73936;BME280;62287;50.858;0.252;2023-06-14T00:40:02;101290.92;;;21.60;30.74
73936;BME280;62287;50.858;0.252;2023-06-14T00:40:34;101289.69;;;22.21;30.96
73936;BME280;62287;50.858;0.252;2023-06-14T00:41:05;101289.58;;;22.18;31.37
73936;BME280;62287;50.858;0.252;2023-06-14T00:41:35;101289.28;;;22.10;31.06
73936;BME280;62287;50.858;0.252;2023-06-14T00:42:07;101290.11;;;21.98;30.84
73936;BME280;62287;50.858;0.252;2023-06-14T00:42:38;101289.05;;;21.80;30.97
73936;BME280;62287;50.858;0.252;2023-06-14T00:43:08;101293.56;;;21.68;31.28
73936;BME280;62287;50.858;0.252;2023-06-14T00:43:39;101292.10;;;21.70;30.13
73936;BME280;62287;50.858;0.252;2023-06-14T00:44:11;101290.34;;;22.28;30.74
73936;BME280;62287;50.858;0.252;2023-06-14T00:44:42;101287.24;;;22.15;31.56
73936;BME280;62287;50.858;0.252;2023-06-14T00:45:13;101288.50;;;22.03;31.37
73936;BME280;62287;50.858;0.252;2023-06-14T00:45:44;101294.29;;;21.78;31.24
73936;BME280;62287;50.858;0.252;2023-06-14T00:46:15;101291.57;;;21.62;31.30
73936;BME280;62287;50.858;0.252;2023-06-14T00:46:46;101290.44;;;22.17;31.28
73936;BME280;62287;50.858;0.252;2023-06-14T00:47:17;101291.44;;;21.93;31.54
73936;BME280;62287;50.858;0.252;2023-06-14T00:47:50;101292.62;;;22.05;31.36
73936;BME280;62287;50.858;0.252;2023-06-14T00:48:22;101295.23;;;21.67;31.45
73936;BME280;62287;50.858;0.252;2023-06-14T00:48:55;101293.74;;;21.62;31.31
73936;BME280;62287;50.858;0.252;2023-06-14T00:49:26;101294.18;;;22.29;30.86
73936;BME280;62287;50.858;0.252;2023-06-14T00:49:58;101296.37;;;22.18;31.01
73936;BME280;62287;50.858;0.252;2023-06-14T00:50:29;101295.96;;;21.94;30.88
73936;BME280;62287;50.858;0.252;2023-06-14T00:51:01;101295.22;;;21.90;31.26
73936;BME280;62287;50.858;0.252;2023-06-14T00:51:32;101294.25;;;22.18;31.26
73936;BME280;62287;50.858;0.252;2023-06-14T00:52:04;101291.95;;;21.77;31.05
73936;BME280;62287;50.858;0.252;2023-06-14T00:52:35;101299.42;;;22.23;31.35
73936;BME280;62287;50.858;0.252;2023-06-14T00:53:08;101296.67;;;22.26;31.48
73936;BME280;62287;50.858;0.252;2023-06-14T00:53:39;101295.79;;;22.04;30.89
73936;BME280;62287;50.858;0.252;2023-06-14T00:54:10;101292.85;;;22.29;30.88
73936;BME280;62287;50.858;0.252;2023-06-14T00:54:42;101293.14;;;21.93;31.40
73936;BME280;62287;50.858;0.252;2023-06-14T00:55:13;101297.92;;;22.38;30.82
73936;BME280;62287;50.858;0.252;2023-06-14T00:55:49;101299.85;;;22.25;30.47
73936;BME280;62287;50.858;0.252;2023-06-14T00:56:20;101297.25;;;22.03;30.62
73936;BME280;62287;50.858;0.252;2023-06-14T00:56:56;101295.31;;;21.95;30.61
73936;BME280;62287;50.858;0.252;2023-06-14T00:57:27;101298.64;;;22.07;30.34
73936;BME280;62287;50.858;0.252;2023-06-14T00:57:59;101297.67;;;21.92;31.03
73936;BME280;62287;50.858;0.252;2023-06-14T00:58:31;101297.81;;;22.30;31.07
73936;BME280;62287;50.858;0.252;2023-06-14T00:59:03;101295.40;;;22.31;30.62
73936;BME280;62287;50.858;0.252;2023-06-14T00:59:35;101293.00;;;22.33;31.22
73936;BME280;62287;50.858;0.252;2023-06-14T01:00:10;101295.65;;;22.13;31.27
73936;BME280;62287;50.858;0.252;2023-06-14T01:00:42;101295.54;;;22.19;31.36
73936;BME280;62287;50.858;0.252;2023-06-14T01:01:13;101293.14;;;21.79;31.36
73936;BME280;62287;50.858;0.252;2023-06-14T01:01:44;101291.44;;;22.05;31.14
73936;BME280;62287;50.858;0.252;2023-06-14T01:02:16;101290.96;;;21.43;30.58
73936;BME280;62287;50.858;0.252;2023-06-14T01:02:47;101290.54;;;22.31;30.80
73936;BME280;62287;50.858;0.252;2023-06-14T01:03:18;101288.53;;;22.06;31.17
73936;BME280;62287;50.858;0.252;2023-06-14T01:03:49;101290.28;;;21.69;31.11
73936;BME280;62287;50.858;0.252;2023-06-14T01:04:20;101290.01;;;21.79;31.21
73936;BME280;62287;50.858;0.252;2023-06-14T01:04:52;101287.73;;;21.81;30.86
73936;BME280;62287;50.858;0.252;2023-06-14T01:05:25;101287.59;;;21.89;31.29
73936;BME280;62287;50.858;0.252;2023-06-14T01:06:02;101286.48;;;22.29;31.22
73936;BME280;62287;50.858;0.252;2023-06-14T01:06:40;101288.78;;;22.61;31.22
73936;BME280;62287;50.858;0.252;2023-06-14T01:07:25;101288.56;;;22.27;31.32
73936;BME280;62287;50.858;0.252;2023-06-14T01:08:11;101290.16;;;22.44;31.42
73936;BME280;62287;50.858;0.252;2023-06-14T01:08:51;101285.36;;;22.62;30.99
73936;BME280;62287;50.858;0.252;2023-06-14T01:09:31;101287.26;;;22.39;30.97
73936;BME280;62287;50.858;0.252;2023-06-14T01:10:15;101289.08;;;22.70;30.64
73936;BME280;62287;50.858;0.252;2023-06-14T01:10:53;101291.46;;;22.12;31.00
73936;BME280;62287;50.858;0.252;2023-06-14T01:11:30;101289.44;;;22.16;30.80
73936;BME280;62287;50.858;0.252;2023-06-14T01:12:09;101290.88;;;22.04;31.19
73936;BME280;62287;50.858;0.252;2023-06-14T01:12:51;101291.36;;;22.64;31.03
73936;BME280;62287;50.858;0.252;2023-06-14T01:13:29;101288.44;;;22.44;31.18
73936;BME280;62287;50.858;0.252;2023-06-14T01:14:04;101288.33;;;22.41;31.36
73936;BME280;62287;50.858;0.252;2023-06-14T01:14:36;101289.55;;;22.35;31.33
73936;BME280;62287;50.858;0.252;2023-06-14T01:15:09;101291.93;;;22.40;31.30
73936;BME280;62287;50.858;0.252;2023-06-14T01:15:41;101289.46;;;22.35;30.86
73936;BME280;62287;50.858;0.252;2023-06-14T01:16:17;101290.02;;;22.29;31.38
73936;BME280;62287;50.858;0.252;2023-06-14T01:16:50;101288.00;;;21.80;30.97
73936;BME280;62287;50.858;0.252;2023-06-14T01:17:23;101288.39;;;21.82;30.85
73936;BME280;62287;50.858;0.252;2023-06-14T01:17:55;101287.95;;;22.05;31.25
73936;BME280;62287;50.858;0.252;2023-06-14T01:18:28;101289.42;;;21.77;31.14
73936;BME280;62287;50.858;0.252;2023-06-14T01:18:59;101289.00;;;21.64;30.75
73936;BME280;62287;50.858;0.252;2023-06-14T01:19:30;101290.47;;;22.03;31.09
73936;BME280;62287;50.858;0.252;2023-06-14T01:20:05;101289.80;;;22.34;30.86
73936;BME280;62287;50.858;0.252;2023-06-14T01:20:36;101288.78;;;22.09;30.97
73936;BME280;62287;50.858;0.252;2023-06-14T01:21:20;101288.83;;;22.52;30.65
73936;BME280;62287;50.858;0.252;2023-06-14T01:21:51;101289.17;;;22.62;30.86
73936;BME280;62287;50.858;0.252;2023-06-14T01:22:23;101293.75;;;22.65;31.08
73936;BME280;62287;50.858;0.252;2023-06-14T01:22:55;101293.84;;;22.64;30.85
73936;BME280;62287;50.858;0.252;2023-06-14T01:23:26;101290.87;;;21.78;31.13
73936;BME280;62287;50.858;0.252;2023-06-14T01:23:57;101291.26;;;21.99;31.06
73936;BME280;62287;50.858;0.252;2023-06-14T01:24:28;101291.41;;;22.01;31.19
73936;BME280;62287;50.858;0.252;2023-06-14T01:24:59;101290.52;;;22.01;31.18
73936;BME280;62287;50.858;0.252;2023-06-14T01:25:30;101292.61;;;22.38;31.29
73936;BME280;62287;50.858;0.252;2023-06-14T01:26:01;101291.37;;;22.04;31.20
73936;BME280;62287;50.858;0.252;2023-06-14T01:26:34;101291.69;;;22.16;31.12
73936;BME280;62287;50.858;0.252;2023-06-14T01:27:06;101291.19;;;22.18;31.17
73936;BME280;62287;50.858;0.252;2023-06-14T01:27:38;101290.45;;;22.64;31.24
73936;BME280;62287;50.858;0.252;2023-06-14T01:28:10;101290.97;;;22.31;31.23
73936;BME280;62287;50.858;0.252;2023-06-14T01:28:42;101289.10;;;21.94;31.25
73936;BME280;62287;50.858;0.252;2023-06-14T01:29:14;101290.77;;;22.56;31.01
73936;BME280;62287;50.858;0.252;2023-06-14T01:29:45;101292.29;;;21.96;31.20
73936;BME280;62287;50.858;0.252;2023-06-14T01:30:23;101291.28;;;22.21;31.27
73936;BME280;62287;50.858;0.252;2023-06-14T01:30:54;101291.07;;;22.04;31.32
73936;BME280;62287;50.858;0.252;2023-06-14T01:31:26;101291.09;;;22.76;30.98
73936;BME280;62287;50.858;0.252;2023-06-14T01:31:57;101290.79;;;22.72;31.26
73936;BME280;62287;50.858;0.252;2023-06-14T01:32:28;101290.49;;;22.63;31.07
73936;BME280;62287;50.858;0.252;2023-06-14T01:33:00;101292.66;;;22.43;31.24
73936;BME280;62287;50.858;0.252;2023-06-14T01:33:33;101293.35;;;22.38;30.99
73936;BME280;62287;50.858;0.252;2023-06-14T01:34:05;101291.62;;;22.42;31.01
73936;BME280;62287;50.858;0.252;2023-06-14T01:34:36;101292.59;;;21.94;31.21
73936;BME280;62287;50.858;0.252;2023-06-14T01:35:07;101291.87;;;22.25;30.92
73936;BME280;62287;50.858;0.252;2023-06-14T01:35:40;101291.30;;;22.35;30.91
73936;BME280;62287;50.858;0.252;2023-06-14T01:36:12;101291.29;;;22.63;31.00
73936;BME280;62287;50.858;0.252;2023-06-14T01:36:45;101290.93;;;22.56;31.04
73936;BME280;62287;50.858;0.252;2023-06-14T01:37:18;101293.58;;;22.55;31.09
73936;BME280;62287;50.858;0.252;2023-06-14T01:37:50;101292.40;;;22.16;30.93
73936;BME280;62287;50.858;0.252;2023-06-14T01:38:24;101293.44;;;22.05;30.97
73936;BME280;62287;50.858;0.252;2023-06-14T01:38:55;101292.55;;;21.87;31.07
73936;BME280;62287;50.858;0.252;2023-06-14T01:39:28;101292.70;;;21.98;30.81
73936;BME280;62287;50.858;0.252;2023-06-14T01:39:59;101292.73;;;22.47;30.60
73936;BME280;62287;50.858;0.252;2023-06-14T01:40:31;101291.26;;;22.45;30.83
73936;BME280;62287;50.858;0.252;2023-06-14T01:41:04;101290.51;;;22.40;30.87
73936;BME280;62287;50.858;0.252;2023-06-14T01:41:35;101292.17;;;22.77;30.50
73936;BME280;62287;50.858;0.252;2023-06-14T01:42:07;101289.75;;;22.71;30.56
73936;BME280;62287;50.858;0.252;2023-06-14T01:42:38;101290.66;;;22.47;30.60
73936;BME280;62287;50.858;0.252;2023-06-14T01:43:11;101289.59;;;22.53;31.00
73936;BME280;62287;50.858;0.252;2023-06-14T01:43:45;101287.02;;;22.10;30.82
73936;BME280;62287;50.858;0.252;2023-06-14T01:44:19;101286.64;;;21.72;30.80
73936;BME280;62287;50.858;0.252;2023-06-14T01:44:52;101287.28;;;22.30;30.80
73936;BME280;62287;50.858;0.252;2023-06-14T01:45:24;101286.07;;;22.47;30.99
73936;BME280;62287;50.858;0.252;2023-06-14T01:45:56;101286.35;;;21.65;30.52
73936;BME280;62287;50.858;0.252;2023-06-14T01:46:28;101285.47;;;21.78;30.75
73936;BME280;62287;50.858;0.252;2023-06-14T01:46:59;101285.55;;;22.10;30.44
73936;BME280;62287;50.858;0.252;2023-06-14T01:47:30;101283.81;;;22.48;30.62
73936;BME280;62287;50.858;0.252;2023-06-14T01:48:02;101284.05;;;22.11;30.56
73936;BME280;62287;50.858;0.252;2023-06-14T01:48:33;101282.59;;;22.09;30.62
73936;BME280;62287;50.858;0.252;2023-06-14T01:49:04;101281.50;;;22.00;30.46
73936;BME280;62287;50.858;0.252;2023-06-14T01:49:35;101279.77;;;21.64;30.45
73936;BME280;62287;50.858;0.252;2023-06-14T01:50:07;101281.02;;;21.97;30.89
73936;BME280;62287;50.858;0.252;2023-06-14T01:50:38;101280.09;;;22.20;31.19
73936;BME280;62287;50.858;0.252;2023-06-14T01:51:09;101276.47;;;22.02;30.81
73936;BME280;62287;50.858;0.252;2023-06-14T01:51:40;101276.98;;;22.01;30.48
73936;BME280;62287;50.858;0.252;2023-06-14T01:52:11;101276.16;;;21.60;30.82
73936;BME280;62287;50.858;0.252;2023-06-14T01:52:42;101275.90;;;22.16;30.61
73936;BME280;62287;50.858;0.252;2023-06-14T01:53:13;101275.21;;;21.85;30.77
73936;BME280;62287;50.858;0.252;2023-06-14T01:53:45;101274.49;;;22.09;30.68
73936;BME280;62287;50.858;0.252;2023-06-14T01:54:16;101274.94;;;22.38;30.74
73936;BME280;62287;50.858;0.252;2023-06-14T01:54:47;101273.57;;;22.01;30.80
73936;BME280;62287;50.858;0.252;2023-06-14T01:55:18;101275.51;;;22.12;30.92
73936;BME280;62287;50.858;0.252;2023-06-14T01:55:49;101272.96;;;21.55;30.65
73936;BME280;62287;50.858;0.252;2023-06-14T01:56:20;101272.94;;;21.94;30.97
73936;BME280;62287;50.858;0.252;2023-06-14T01:56:52;101271.79;;;21.73;31.21
73936;BME280;62287;50.858;0.252;2023-06-14T01:57:24;101273.41;;;22.22;30.77
73936;BME280;62287;50.858;0.252;2023-06-14T01:57:55;101272.07;;;21.92;30.74
73936;BME280;62287;50.858;0.252;2023-06-14T01:58:26;101272.01;;;21.96;30.78
73936;BME280;62287;50.858;0.252;2023-06-14T01:58:57;101272.57;;;21.83;31.00
73936;BME280;62287;50.858;0.252;2023-06-14T01:59:28;101270.34;;;21.80;31.02
73936;BME280;62287;50.858;0.252;2023-06-14T01:59:59;101269.71;;;21.73;30.95
73936;BME280;62287;50.858;0.252;2023-06-14T02:00:30;101271.41;;;22.20;30.85
73936;BME280;62287;50.858;0.252;2023-06-14T02:01:02;101271.63;;;22.21;30.89
73936;BME280;62287;50.858;0.252;2023-06-14T02:01:33;101268.91;;;22.12;31.01
73936;BME280;62287;50.858;0.252;2023-06-14T02:02:04;101269.81;;;21.84;30.87
73936;BME280;62287;50.858;0.252;2023-06-14T02:02:37;101269.97;;;22.25;30.95
73936;BME280;62287;50.858;0.252;2023-06-14T02:03:07;101269.94;;;22.12;30.80
73936;BME280;62287;50.858;0.252;2023-06-14T02:03:38;101268.25;;;21.89;31.07
73936;BME280;62287;50.858;0.252;2023-06-14T02:04:09;101269.60;;;21.86;30.99
73936;BME280;62287;50.858;0.252;2023-06-14T02:04:40;101272.38;;;21.86;31.07
73936;BME280;62287;50.858;0.252;2023-06-14T02:05:11;101272.50;;;22.51;31.04
73936;BME280;62287;50.858;0.252;2023-06-14T02:05:43;101274.47;;;22.30;31.06
73936;BME280;62287;50.858;0.252;2023-06-14T02:06:14;101270.88;;;22.23;30.86
73936;BME280;62287;50.858;0.252;2023-06-14T02:06:45;101273.87;;;22.62;31.03
73936;BME280;62287;50.858;0.252;2023-06-14T02:07:16;101272.97;;;22.09;30.90
73936;BME280;62287;50.858;0.252;2023-06-14T02:07:47;101271.95;;;22.51;30.91
73936;BME280;62287;50.858;0.252;2023-06-14T02:08:19;101273.54;;;22.12;30.93
73936;BME280;62287;50.858;0.252;2023-06-14T02:08:50;101273.49;;;22.48;31.03
73936;BME280;62287;50.858;0.252;2023-06-14T02:09:22;101269.29;;;21.69;30.99
73936;BME280;62287;50.858;0.252;2023-06-14T02:09:53;101268.30;;;22.72;30.98
73936;BME280;62287;50.858;0.252;2023-06-14T02:10:25;101271.89;;;22.65;31.01
73936;BME280;62287;50.858;0.252;2023-06-14T02:10:56;101270.31;;;22.19;30.92
73936;BME280;62287;50.858;0.252;2023-06-14T02:11:27;101269.04;;;22.09;31.32
73936;BME280;62287;50.858;0.252;2023-06-14T02:11:59;101269.74;;;22.43;31.28
73936;BME280;62287;50.858;0.252;2023-06-14T02:12:30;101270.88;;;22.09;31.05
73936;BME280;62287;50.858;0.252;2023-06-14T02:13:02;101268.96;;;22.09;31.18
73936;BME280;62287;50.858;0.252;2023-06-14T02:13:34;101268.93;;;22.40;30.99
73936;BME280;62287;50.858;0.252;2023-06-14T02:14:06;101272.48;;;22.16;30.79
73936;BME280;62287;50.858;0.252;2023-06-14T02:14:37;101269.70;;;21.96;31.15
73936;BME280;62287;50.858;0.252;2023-06-14T02:15:09;101269.01;;;22.46;30.89
73936;BME280;62287;50.858;0.252;2023-06-14T02:15:47;101270.01;;;22.29;31.08
73936;BME280;62287;50.858;0.252;2023-06-14T02:16:20;101268.15;;;22.05;30.81
73936;BME280;62287;50.858;0.252;2023-06-14T02:16:53;101266.14;;;22.65;30.88
73936;BME280;62287;50.858;0.252;2023-06-14T02:17:24;101268.37;;;22.58;30.80
73936;BME280;62287;50.858;0.252;2023-06-14T02:17:56;101267.23;;;22.22;31.02
73936;BME280;62287;50.858;0.252;2023-06-14T02:18:29;101265.41;;;22.38;30.80
73936;BME280;62287;50.858;0.252;2023-06-14T02:19:01;101268.16;;;22.64;30.84
73936;BME280;62287;50.858;0.252;2023-06-14T02:19:34;101268.34;;;21.89;30.80
73936;BME280;62287;50.858;0.252;2023-06-14T02:20:08;101267.08;;;21.88;30.65
73936;BME280;62287;50.858;0.252;2023-06-14T02:20:40;101264.24;;;22.45;30.74
73936;BME280;62287;50.858;0.252;2023-06-14T02:21:11;101263.98;;;22.39;30.72
73936;BME280;62287;50.858;0.252;2023-06-14T02:21:43;101265.52;;;22.43;30.66
73936;BME280;62287;50.858;0.252;2023-06-14T02:22:14;101267.00;;;22.32;30.69
73936;BME280;62287;50.858;0.252;2023-06-14T02:22:47;101268.88;;;21.87;31.04
73936;BME280;62287;50.858;0.252;2023-06-14T02:23:18;101267.16;;;22.09;30.88
73936;BME280;62287;50.858;0.252;2023-06-14T02:23:49;101266.67;;;22.50;30.84
73936;BME280;62287;50.858;0.252;2023-06-14T02:24:21;101267.69;;;22.05;30.87
73936;BME280;62287;50.858;0.252;2023-06-14T02:24:52;101268.22;;;22.25;31.01
73936;BME280;62287;50.858;0.252;2023-06-14T02:25:23;101269.51;;;22.48;30.90
73936;BME280;62287;50.858;0.252;2023-06-14T02:25:54;101268.86;;;22.40;30.85
73936;BME280;62287;50.858;0.252;2023-06-14T02:26:25;101273.40;;;22.31;31.00
73936;BME280;62287;50.858;0.252;2023-06-14T02:26:56;101274.06;;;22.61;31.32
73936;BME280;62287;50.858;0.252;2023-06-14T02:27:27;101272.29;;;22.32;31.30
73936;BME280;62287;50.858;0.252;2023-06-14T02:27:57;101272.48;;;22.33;31.32
73936;BME280;62287;50.858;0.252;2023-06-14T02:28:28;101274.86;;;22.00;31.03
73936;BME280;62287;50.858;0.252;2023-06-14T02:29:01;101271.40;;;22.17;31.29
73936;BME280;62287;50.858;0.252;2023-06-14T02:29:32;101272.74;;;21.74;31.38
73936;BME280;62287;50.858;0.252;2023-06-14T02:30:03;101271.61;;;22.60;31.11
73936;BME280;62287;50.858;0.252;2023-06-14T02:30:35;101272.72;;;22.19;31.35
73936;BME280;62287;50.858;0.252;2023-06-14T02:31:06;101272.05;;;22.52;31.33
73936;BME280;62287;50.858;0.252;2023-06-14T02:31:38;101269.75;;;22.72;31.24
73936;BME280;62287;50.858;0.252;2023-06-14T02:32:09;101271.10;;;21.96;31.33
73936;BME280;62287;50.858;0.252;2023-06-14T02:32:41;101270.25;;;22.51;31.48
73936;BME280;62287;50.858;0.252;2023-06-14T02:33:12;101271.62;;;22.24;31.39
73936;BME280;62287;50.858;0.252;2023-06-14T02:33:43;101271.00;;;21.93;31.14
73936;BME280;62287;50.858;0.252;2023-06-14T02:34:14;101272.22;;;22.45;31.59
73936;BME280;62287;50.858;0.252;2023-06-14T02:34:45;101274.36;;;22.35;31.28
73936;BME280;62287;50.858;0.252;2023-06-14T02:35:16;101273.69;;;22.65;31.29
73936;BME280;62287;50.858;0.252;2023-06-14T02:35:47;101273.81;;;22.34;31.23
73936;BME280;62287;50.858;0.252;2023-06-14T02:36:18;101275.78;;;22.21;31.40
73936;BME280;62287;50.858;0.252;2023-06-14T02:36:49;101275.26;;;22.26;31.41
73936;BME280;62287;50.858;0.252;2023-06-14T02:37:20;101275.48;;;22.26;31.56
73936;BME280;62287;50.858;0.252;2023-06-14T02:37:51;101277.29;;;22.59;31.44
73936;BME280;62287;50.858;0.252;2023-06-14T02:38:22;101277.29;;;22.33;31.35
73936;BME280;62287;50.858;0.252;2023-06-14T02:38:53;101278.73;;;22.32;31.41
73936;BME280;62287;50.858;0.252;2023-06-14T02:39:24;101277.59;;;22.12;31.59
73936;BME280;62287;50.858;0.252;2023-06-14T02:39:56;101276.79;;;22.48;31.38
73936;BME280;62287;50.858;0.252;2023-06-14T02:40:27;101274.89;;;22.11;31.50
73936;BME280;62287;50.858;0.252;2023-06-14T02:40:58;101276.86;;;22.09;31.28
73936;BME280;62287;50.858;0.252;2023-06-14T02:41:29;101276.88;;;22.15;31.41
73936;BME280;62287;50.858;0.252;2023-06-14T02:42:00;101275.92;;;22.48;31.49
73936;BME280;62287;50.858;0.252;2023-06-14T02:42:31;101274.56;;;22.09;31.36
73936;BME280;62287;50.858;0.252;2023-06-14T02:43:01;101273.94;;;22.06;31.49
73936;BME280;62287;50.858;0.252;2023-06-14T02:43:33;101273.52;;;22.65;31.22
73936;BME280;62287;50.858;0.252;2023-06-14T02:44:04;101274.42;;;21.85;31.03
73936;BME280;62287;50.858;0.252;2023-06-14T02:44:35;101271.39;;;22.53;31.33
73936;BME280;62287;50.858;0.252;2023-06-14T02:45:07;101271.36;;;22.30;31.22
73936;BME280;62287;50.858;0.252;2023-06-14T02:45:38;101273.04;;;22.44;31.25
73936;BME280;62287;50.858;0.252;2023-06-14T02:46:10;101273.21;;;22.06;31.22
73936;BME280;62287;50.858;0.252;2023-06-14T02:46:41;101274.29;;;21.83;31.10
73936;BME280;62287;50.858;0.252;2023-06-14T02:47:12;101274.39;;;22.04;31.34